sensor_id;sensor_type;location;lat;lon;timestamp;temperature;humidity
57218;DHT22;43078;52.972;6.482;2023-04-15T00:00:29;10.80;99.90
57218;DHT22;43078;52.972;6.482;2023-04-15T00:02:55;10.80;99.90
57218;DHT22;43078;52.972;6.482;2023-04-15T00:05:20;10.70;99.90
57218;DHT22;43078;52.972;6.482;2023-04-15T00:07:46;10.70;99.90
57218;DHT22;43078;52.972;6.482;2023-04-15T00:10:13;10.60;99.90
57218;DHT22;43078;52.972;6.482;2023-04-15T00:12:41;10.60;99.90
57218;DHT22;43078;52.972;6.482;2023-04-15T00:15:07;10.60;99.90
57218;DHT22;43078;52.972;6.482;2023-04-15T00:17:34;10.60;99.90
57218;DHT22;43078;52.972;6.482;2023-04-15T00:20:00;10.60;99.90
57218;DHT22;43078;52.972;6.482;2023-04-15T00:22:26;10.60;99.90
57218;DHT22;43078;52.972;6.482;2023-04-15T00:24:52;10.60;99.90
57218;DHT22;43078;52.972;6.482;2023-04-15T00:27:18;10.60;99.90
57218;DHT22;43078;52.972;6.482;2023-04-15T00:29:44;10.60;99.90
57218;DHT22;43078;52.972;6.482;2023-04-15T00:32:09;10.50;99.90
57218;DHT22;43078;52.972;6.482;2023-04-15T00:34:35;10.50;99.90
57218;DHT22;43078;52.972;6.482;2023-04-15T00:37:01;10.50;99.90
57218;DHT22;43078;52.972;6.482;2023-04-15T00:39:27;10.40;99.90
57218;DHT22;43078;52.972;6.482;2023-04-15T00:41:52;10.40;99.90
57218;DHT22;43078;52.972;6.482;2023-04-15T00:44:19;10.40;99.90
57218;DHT22;43078;52.972;6.482;2023-04-15T00:46:45;10.40;99.90
57218;DHT22;43078;52.972;6.482;2023-04-15T00:49:11;10.40;99.90
57218;DHT22;43078;52.972;6.482;2023-04-15T00:51:37;10.30;99.90
57218;DHT22;43078;52.972;6.482;2023-04-15T00:54:04;10.30;99.90
57218;DHT22;43078;52.972;6.482;2023-04-15T00:56:30;10.30;99.90
57218;DHT22;43078;52.972;6.482;2023-04-15T00:58:58;10.20;99.90
57218;DHT22;43078;52.972;6.482;2023-04-15T01:01:25;10.20;99.90
57218;DHT22;43078;52.972;6.482;2023-04-15T01:03:51;10.10;99.90
57218;DHT22;43078;52.972;6.482;2023-04-15T01:06:17;10.10;99.90
57218;DHT22;43078;52.972;6.482;2023-04-15T01:08:43;10.00;99.90
57218;DHT22;43078;52.972;6.482;2023-04-15T01:11:11;10.00;99.90
57218;DHT22;43078;52.972;6.482;2023-04-15T01:13:37;10.00;99.90
57218;DHT22;43078;52.972;6.482;2023-04-15T01:16:03;10.00;99.90
57218;DHT22;43078;52.972;6.482;2023-04-15T01:18:29;9.90;99.90
57218;DHT22;43078;52.972;6.482;2023-04-15T01:20:55;9.90;99.90
57218;DHT22;43078;52.972;6.482;2023-04-15T01:23:21;9.80;99.90
57218;DHT22;43078;52.972;6.482;2023-04-15T01:25:48;9.80;99.90
57218;DHT22;43078;52.972;6.482;2023-04-15T01:28:14;9.80;99.90
57218;DHT22;43078;52.972;6.482;2023-04-15T01:30:40;9.70;99.90
57218;DHT22;43078;52.972;6.482;2023-04-15T01:33:06;9.70;99.90
57218;DHT22;43078;52.972;6.482;2023-04-15T01:35:32;9.60;99.90
57218;DHT22;43078;52.972;6.482;2023-04-15T01:38:15;9.60;99.90
57218;DHT22;43078;52.972;6.482;2023-04-15T01:40:41;9.60;99.90
57218;DHT22;43078;52.972;6.482;2023-04-15T01:43:07;9.50;99.90
57218;DHT22;43078;52.972;6.482;2023-04-15T01:45:32;9.50;99.90
57218;DHT22;43078;52.972;6.482;2023-04-15T01:47:58;9.50;99.90
57218;DHT22;43078;52.972;6.482;2023-04-15T01:50:23;9.40;99.90
57218;DHT22;43078;52.972;6.482;2023-04-15T01:52:50;9.40;99.90
57218;DHT22;43078;52.972;6.482;2023-04-15T01:55:15;9.30;99.90
57218;DHT22;43078;52.972;6.482;2023-04-15T01:57:41;9.30;99.90
57218;DHT22;43078;52.972;6.482;2023-04-15T02:00:07;9.30;99.90
57218;DHT22;43078;52.972;6.482;2023-04-15T02:02:33;9.20;99.90
57218;DHT22;43078;52.972;6.482;2023-04-15T02:04:59;9.20;99.90
57218;DHT22;43078;52.972;6.482;2023-04-15T02:07:25;9.20;99.90
57218;DHT22;43078;52.972;6.482;2023-04-15T02:09:51;9.20;99.90
57218;DHT22;43078;52.972;6.482;2023-04-15T02:12:17;9.10;99.90
57218;DHT22;43078;52.972;6.482;2023-04-15T02:14:43;9.10;99.90
57218;DHT22;43078;52.972;6.482;2023-04-15T02:17:08;9.10;99.90
57218;DHT22;43078;52.972;6.482;2023-04-15T02:19:35;9.00;99.90
57218;DHT22;43078;52.972;6.482;2023-04-15T02:22:00;9.00;99.90
57218;DHT22;43078;52.972;6.482;2023-04-15T02:24:27;8.90;99.90
57218;DHT22;43078;52.972;6.482;2023-04-15T02:26:53;8.90;99.90
57218;DHT22;43078;52.972;6.482;2023-04-15T02:29:18;8.90;99.90
57218;DHT22;43078;52.972;6.482;2023-04-15T02:31:44;8.90;99.90
57218;DHT22;43078;52.972;6.482;2023-04-15T02:34:10;8.90;99.90
57218;DHT22;43078;52.972;6.482;2023-04-15T02:36:36;8.80;99.90
57218;DHT22;43078;52.972;6.482;2023-04-15T02:39:02;8.80;99.90
57218;DHT22;43078;52.972;6.482;2023-04-15T02:41:28;8.80;99.90
57218;DHT22;43078;52.972;6.482;2023-04-15T02:43:54;8.80;99.90
57218;DHT22;43078;52.972;6.482;2023-04-15T02:46:21;8.80;99.90
57218;DHT22;43078;52.972;6.482;2023-04-15T02:48:48;8.70;99.90
57218;DHT22;43078;52.972;6.482;2023-04-15T02:51:14;8.70;99.90
57218;DHT22;43078;52.972;6.482;2023-04-15T02:53:41;8.70;99.90
57218;DHT22;43078;52.972;6.482;2023-04-15T02:56:07;8.60;99.90
57218;DHT22;43078;52.972;6.482;2023-04-15T02:58:33;8.70;99.90
57218;DHT22;43078;52.972;6.482;2023-04-15T03:00:59;8.60;99.90
57218;DHT22;43078;52.972;6.482;2023-04-15T03:03:25;8.60;99.90
57218;DHT22;43078;52.972;6.482;2023-04-15T03:05:52;8.60;99.90
57218;DHT22;43078;52.972;6.482;2023-04-15T03:08:18;8.50;99.90
57218;DHT22;43078;52.972;6.482;2023-04-15T03:10:43;8.60;99.90
57218;DHT22;43078;52.972;6.482;2023-04-15T03:13:09;8.50;99.90
57218;DHT22;43078;52.972;6.482;2023-04-15T03:15:35;8.50;99.90
57218;DHT22;43078;52.972;6.482;2023-04-15T03:18:00;8.50;99.90
57218;DHT22;43078;52.972;6.482;2023-04-15T03:20:26;8.50;99.90
57218;DHT22;43078;52.972;6.482;2023-04-15T03:22:51;8.40;99.90
57218;DHT22;43078;52.972;6.482;2023-04-15T03:25:17;8.40;99.90
57218;DHT22;43078;52.972;6.482;2023-04-15T03:27:43;8.30;99.90
57218;DHT22;43078;52.972;6.482;2023-04-15T03:30:09;8.30;99.90
57218;DHT22;43078;52.972;6.482;2023-04-15T03:32:34;8.30;99.90
57218;DHT22;43078;52.972;6.482;2023-04-15T03:35:00;8.20;99.90
57218;DHT22;43078;52.972;6.482;2023-04-15T03:37:26;8.20;99.90
57218;DHT22;43078;52.972;6.482;2023-04-15T03:39:51;8.20;99.90
57218;DHT22;43078;52.972;6.482;2023-04-15T03:42:17;8.10;99.90
57218;DHT22;43078;52.972;6.482;2023-04-15T03:44:43;8.10;99.90
57218;DHT22;43078;52.972;6.482;2023-04-15T03:47:08;8.10;99.90
57218;DHT22;43078;52.972;6.482;2023-04-15T03:49:35;8.00;99.90
57218;DHT22;43078;52.972;6.482;2023-04-15T03:52:01;8.00;99.90
57218;DHT22;43078;52.972;6.482;2023-04-15T03:54:26;8.00;99.90
57218;DHT22;43078;52.972;6.482;2023-04-15T03:56:52;8.00;99.90
57218;DHT22;43078;52.972;6.482;2023-04-15T03:59:17;7.90;99.90
57218;DHT22;43078;52.972;6.482;2023-04-15T04:01:43;7.90;99.90
57218;DHT22;43078;52.972;6.482;2023-04-15T04:04:08;7.90;99.90
57218;DHT22;43078;52.972;6.482;2023-04-15T04:06:34;7.90;99.90
57218;DHT22;43078;52.972;6.482;2023-04-15T04:09:00;7.90;99.90
57218;DHT22;43078;52.972;6.482;2023-04-15T04:11:26;7.80;99.90
57218;DHT22;43078;52.972;6.482;2023-04-15T04:13:52;7.80;99.90
57218;DHT22;43078;52.972;6.482;2023-04-15T04:16:18;7.80;99.90
57218;DHT22;43078;52.972;6.482;2023-04-15T04:18:44;7.70;99.90
57218;DHT22;43078;52.972;6.482;2023-04-15T04:21:10;7.70;99.90
57218;DHT22;43078;52.972;6.482;2023-04-15T04:23:36;7.70;99.90
57218;DHT22;43078;52.972;6.482;2023-04-15T04:26:01;7.70;99.90
57218;DHT22;43078;52.972;6.482;2023-04-15T04:28:27;7.70;99.90
57218;DHT22;43078;52.972;6.482;2023-04-15T04:30:52;7.70;99.90
57218;DHT22;43078;52.972;6.482;2023-04-15T04:33:18;7.70;99.90
57218;DHT22;43078;52.972;6.482;2023-04-15T04:35:45;7.60;99.90
57218;DHT22;43078;52.972;6.482;2023-04-15T04:38:11;7.60;99.90
57218;DHT22;43078;52.972;6.482;2023-04-15T04:40:36;7.60;99.90
57218;DHT22;43078;52.972;6.482;2023-04-15T04:43:02;7.60;99.90
57218;DHT22;43078;52.972;6.482;2023-04-15T04:45:28;7.50;99.90
57218;DHT22;43078;52.972;6.482;2023-04-15T04:47:54;7.50;99.90
57218;DHT22;43078;52.972;6.482;2023-04-15T04:50:19;7.40;99.90
57218;DHT22;43078;52.972;6.482;2023-04-15T04:52:45;7.40;99.90
57218;DHT22;43078;52.972;6.482;2023-04-15T04:55:11;7.40;99.90
57218;DHT22;43078;52.972;6.482;2023-04-15T04:57:36;7.40;99.90
57218;DHT22;43078;52.972;6.482;2023-04-15T05:00:05;7.30;99.90
57218;DHT22;43078;52.972;6.482;2023-04-15T05:02:31;7.30;99.90
57218;DHT22;43078;52.972;6.482;2023-04-15T05:04:57;7.30;99.90
57218;DHT22;43078;52.972;6.482;2023-04-15T05:07:22;7.30;99.90
57218;DHT22;43078;52.972;6.482;2023-04-15T05:09:48;7.20;99.90
57218;DHT22;43078;52.972;6.482;2023-04-15T05:12:14;7.20;99.90
57218;DHT22;43078;52.972;6.482;2023-04-15T05:14:42;7.20;99.90
57218;DHT22;43078;52.972;6.482;2023-04-15T05:17:08;7.20;99.90
57218;DHT22;43078;52.972;6.482;2023-04-15T05:19:37;7.20;99.90
57218;DHT22;43078;52.972;6.482;2023-04-15T05:22:02;7.10;99.90
57218;DHT22;43078;52.972;6.482;2023-04-15T05:24:28;7.10;99.90
57218;DHT22;43078;52.972;6.482;2023-04-15T05:26:54;7.10;99.90
57218;DHT22;43078;52.972;6.482;2023-04-15T05:29:20;7.00;99.90
57218;DHT22;43078;52.972;6.482;2023-04-15T05:31:46;7.10;99.90
57218;DHT22;43078;52.972;6.482;2023-04-15T05:34:11;7.10;99.90
57218;DHT22;43078;52.972;6.482;2023-04-15T05:36:37;7.00;99.90
57218;DHT22;43078;52.972;6.482;2023-04-15T05:39:03;7.00;99.90
57218;DHT22;43078;52.972;6.482;2023-04-15T05:41:29;7.00;99.90
57218;DHT22;43078;52.972;6.482;2023-04-15T05:43:54;7.00;99.90
57218;DHT22;43078;52.972;6.482;2023-04-15T05:46:20;7.00;99.90
57218;DHT22;43078;52.972;6.482;2023-04-15T05:48:47;7.00;99.90
57218;DHT22;43078;52.972;6.482;2023-04-15T05:51:13;7.00;99.90
57218;DHT22;43078;52.972;6.482;2023-04-15T05:53:38;7.00;99.90
57218;DHT22;43078;52.972;6.482;2023-04-15T05:56:06;6.90;99.90
57218;DHT22;43078;52.972;6.482;2023-04-15T05:58:32;6.90;99.90
57218;DHT22;43078;52.972;6.482;2023-04-15T06:00:57;6.90;99.90
57218;DHT22;43078;52.972;6.482;2023-04-15T06:03:43;6.90;99.90
57218;DHT22;43078;52.972;6.482;2023-04-15T06:06:09;6.90;99.90
57218;DHT22;43078;52.972;6.482;2023-04-15T06:08:46;6.90;99.90
57218;DHT22;43078;52.972;6.482;2023-04-15T06:11:12;6.90;99.90
57218;DHT22;43078;52.972;6.482;2023-04-15T06:13:37;6.80;99.90
57218;DHT22;43078;52.972;6.482;2023-04-15T06:16:03;6.90;99.90
57218;DHT22;43078;52.972;6.482;2023-04-15T06:18:32;6.90;99.90
57218;DHT22;43078;52.972;6.482;2023-04-15T06:20:58;6.90;99.90
57218;DHT22;43078;52.972;6.482;2023-04-15T06:23:24;6.90;99.90
57218;DHT22;43078;52.972;6.482;2023-04-15T06:25:49;6.90;99.90
57218;DHT22;43078;52.972;6.482;2023-04-15T06:28:15;6.90;99.90
57218;DHT22;43078;52.972;6.482;2023-04-15T06:30:41;6.90;99.90
57218;DHT22;43078;52.972;6.482;2023-04-15T06:33:07;6.90;99.90
57218;DHT22;43078;52.972;6.482;2023-04-15T06:35:33;7.00;99.90
57218;DHT22;43078;52.972;6.482;2023-04-15T06:37:58;7.10;99.90
57218;DHT22;43078;52.972;6.482;2023-04-15T06:40:24;7.00;99.90
57218;DHT22;43078;52.972;6.482;2023-04-15T06:42:49;7.10;99.90
57218;DHT22;43078;52.972;6.482;2023-04-15T06:45:15;7.20;99.90
57218;DHT22;43078;52.972;6.482;2023-04-15T06:47:42;7.20;99.90
57218;DHT22;43078;52.972;6.482;2023-04-15T06:50:08;7.30;99.90
57218;DHT22;43078;52.972;6.482;2023-04-15T06:52:34;7.30;99.90
57218;DHT22;43078;52.972;6.482;2023-04-15T06:55:00;7.40;99.90
57218;DHT22;43078;52.972;6.482;2023-04-15T06:57:26;7.40;99.90
57218;DHT22;43078;52.972;6.482;2023-04-15T06:59:53;7.40;99.90
57218;DHT22;43078;52.972;6.482;2023-04-15T07:02:19;7.50;99.90
57218;DHT22;43078;52.972;6.482;2023-04-15T07:04:45;7.50;99.90
57218;DHT22;43078;52.972;6.482;2023-04-15T07:07:11;7.60;99.90
57218;DHT22;43078;52.972;6.482;2023-04-15T07:09:36;7.60;99.90
57218;DHT22;43078;52.972;6.482;2023-04-15T07:12:02;7.60;99.90
57218;DHT22;43078;52.972;6.482;2023-04-15T07:14:28;7.60;99.90
57218;DHT22;43078;52.972;6.482;2023-04-15T07:16:54;7.70;99.90
57218;DHT22;43078;52.972;6.482;2023-04-15T07:19:20;7.70;99.90
57218;DHT22;43078;52.972;6.482;2023-04-15T07:21:46;7.70;99.90
57218;DHT22;43078;52.972;6.482;2023-04-15T07:24:12;7.80;99.90
57218;DHT22;43078;52.972;6.482;2023-04-15T07:26:41;7.80;99.90
57218;DHT22;43078;52.972;6.482;2023-04-15T07:29:07;7.90;99.90
57218;DHT22;43078;52.972;6.482;2023-04-15T07:31:32;7.90;99.90
57218;DHT22;43078;52.972;6.482;2023-04-15T07:33:58;8.00;99.90
57218;DHT22;43078;52.972;6.482;2023-04-15T07:36:24;8.00;99.90
57218;DHT22;43078;52.972;6.482;2023-04-15T07:38:49;8.00;99.90
57218;DHT22;43078;52.972;6.482;2023-04-15T07:41:15;8.10;99.90
57218;DHT22;43078;52.972;6.482;2023-04-15T07:43:41;8.20;99.90
57218;DHT22;43078;52.972;6.482;2023-04-15T07:46:07;8.20;99.90
57218;DHT22;43078;52.972;6.482;2023-04-15T07:48:33;8.20;99.90
57218;DHT22;43078;52.972;6.482;2023-04-15T07:50:59;8.20;99.90
57218;DHT22;43078;52.972;6.482;2023-04-15T07:53:25;8.30;99.90
57218;DHT22;43078;52.972;6.482;2023-04-15T07:55:50;8.40;99.90
57218;DHT22;43078;52.972;6.482;2023-04-15T07:58:16;8.40;99.90
57218;DHT22;43078;52.972;6.482;2023-04-15T08:00:44;8.40;99.90
57218;DHT22;43078;52.972;6.482;2023-04-15T08:03:10;8.50;99.90
57218;DHT22;43078;52.972;6.482;2023-04-15T08:05:36;8.40;99.90
57218;DHT22;43078;52.972;6.482;2023-04-15T08:08:01;8.50;99.90
57218;DHT22;43078;52.972;6.482;2023-04-15T08:10:28;8.50;99.90
57218;DHT22;43078;52.972;6.482;2023-04-15T08:12:54;8.60;99.90
57218;DHT22;43078;52.972;6.482;2023-04-15T08:15:20;8.60;99.90
57218;DHT22;43078;52.972;6.482;2023-04-15T08:17:46;8.60;99.90
57218;DHT22;43078;52.972;6.482;2023-04-15T08:20:12;8.60;99.90
57218;DHT22;43078;52.972;6.482;2023-04-15T08:22:38;8.70;99.90
57218;DHT22;43078;52.972;6.482;2023-04-15T08:25:04;8.70;99.90
57218;DHT22;43078;52.972;6.482;2023-04-15T08:27:30;8.70;99.90
57218;DHT22;43078;52.972;6.482;2023-04-15T08:29:56;8.80;99.90
57218;DHT22;43078;52.972;6.482;2023-04-15T08:32:21;8.80;99.90
57218;DHT22;43078;52.972;6.482;2023-04-15T08:34:47;8.80;99.90
57218;DHT22;43078;52.972;6.482;2023-04-15T08:37:13;8.80;99.90
57218;DHT22;43078;52.972;6.482;2023-04-15T08:39:38;8.90;99.90
57218;DHT22;43078;52.972;6.482;2023-04-15T08:42:11;8.90;99.90
57218;DHT22;43078;52.972;6.482;2023-04-15T08:44:42;8.90;99.90
57218;DHT22;43078;52.972;6.482;2023-04-15T08:47:10;8.90;99.90
57218;DHT22;43078;52.972;6.482;2023-04-15T08:49:38;9.00;99.90
57218;DHT22;43078;52.972;6.482;2023-04-15T08:52:05;9.00;99.90
57218;DHT22;43078;52.972;6.482;2023-04-15T08:54:31;9.00;99.90
57218;DHT22;43078;52.972;6.482;2023-04-15T08:56:57;9.00;99.90
57218;DHT22;43078;52.972;6.482;2023-04-15T08:59:23;9.00;99.90
57218;DHT22;43078;52.972;6.482;2023-04-15T09:01:50;9.00;99.90
57218;DHT22;43078;52.972;6.482;2023-04-15T09:04:17;9.10;99.90
57218;DHT22;43078;52.972;6.482;2023-04-15T09:06:43;9.10;99.90
57218;DHT22;43078;52.972;6.482;2023-04-15T09:09:08;9.10;99.90
57218;DHT22;43078;52.972;6.482;2023-04-15T09:11:34;9.10;99.90
57218;DHT22;43078;52.972;6.482;2023-04-15T09:14:01;9.10;99.90
57218;DHT22;43078;52.972;6.482;2023-04-15T09:16:26;9.10;99.90
57218;DHT22;43078;52.972;6.482;2023-04-15T09:18:59;9.10;99.90
57218;DHT22;43078;52.972;6.482;2023-04-15T09:21:25;9.10;99.90
57218;DHT22;43078;52.972;6.482;2023-04-15T09:24:00;9.10;99.90
57218;DHT22;43078;52.972;6.482;2023-04-15T09:26:34;9.10;99.90
57218;DHT22;43078;52.972;6.482;2023-04-15T09:29:09;9.10;99.90
57218;DHT22;43078;52.972;6.482;2023-04-15T09:31:38;9.20;99.90
57218;DHT22;43078;52.972;6.482;2023-04-15T09:34:04;9.20;99.90
57218;DHT22;43078;52.972;6.482;2023-04-15T09:39:10;9.20;99.90
57218;DHT22;43078;52.972;6.482;2023-04-15T09:41:36;9.20;99.90
57218;DHT22;43078;52.972;6.482;2023-04-15T09:44:03;9.20;99.90
57218;DHT22;43078;52.972;6.482;2023-04-15T09:46:42;9.30;99.90
57218;DHT22;43078;52.972;6.482;2023-04-15T09:49:10;9.20;99.90
57218;DHT22;43078;52.972;6.482;2023-04-15T09:51:36;9.30;99.90
57218;DHT22;43078;52.972;6.482;2023-04-15T09:54:02;9.30;99.90
57218;DHT22;43078;52.972;6.482;2023-04-15T09:56:38;9.30;99.90
57218;DHT22;43078;52.972;6.482;2023-04-15T09:59:09;9.30;99.90
57218;DHT22;43078;52.972;6.482;2023-04-15T10:01:35;9.30;99.90
57218;DHT22;43078;52.972;6.482;2023-04-15T10:04:04;9.40;99.90
57218;DHT22;43078;52.972;6.482;2023-04-15T10:06:30;9.40;99.90
57218;DHT22;43078;52.972;6.482;2023-04-15T10:08:57;9.40;99.90
57218;DHT22;43078;52.972;6.482;2023-04-15T10:11:25;9.50;99.90
57218;DHT22;43078;52.972;6.482;2023-04-15T10:13:53;9.40;99.90
57218;DHT22;43078;52.972;6.482;2023-04-15T10:16:20;9.50;99.90
57218;DHT22;43078;52.972;6.482;2023-04-15T10:18:54;9.50;99.90
57218;DHT22;43078;52.972;6.482;2023-04-15T10:21:20;9.50;99.90
57218;DHT22;43078;52.972;6.482;2023-04-15T10:23:48;9.50;99.90
57218;DHT22;43078;52.972;6.482;2023-04-15T10:26:14;9.50;99.90
57218;DHT22;43078;52.972;6.482;2023-04-15T10:28:40;9.50;99.90
57218;DHT22;43078;52.972;6.482;2023-04-15T10:31:06;9.50;99.90
57218;DHT22;43078;52.972;6.482;2023-04-15T10:33:32;9.50;99.90
57218;DHT22;43078;52.972;6.482;2023-04-15T10:35:59;9.50;99.90
57218;DHT22;43078;52.972;6.482;2023-04-15T10:38:36;9.50;99.90
57218;DHT22;43078;52.972;6.482;2023-04-15T10:41:21;9.50;99.90
57218;DHT22;43078;52.972;6.482;2023-04-15T10:43:54;9.60;99.90
57218;DHT22;43078;52.972;6.482;2023-04-15T10:48:47;9.60;99.90
57218;DHT22;43078;52.972;6.482;2023-04-15T10:51:25;9.60;99.90
57218;DHT22;43078;52.972;6.482;2023-04-15T10:53:55;9.60;99.90
57218;DHT22;43078;52.972;6.482;2023-04-15T10:56:22;9.60;99.90
57218;DHT22;43078;52.972;6.482;2023-04-15T10:58:47;9.70;99.90
57218;DHT22;43078;52.972;6.482;2023-04-15T11:01:13;9.70;99.90
57218;DHT22;43078;52.972;6.482;2023-04-15T11:03:41;9.70;99.90
57218;DHT22;43078;52.972;6.482;2023-04-15T11:06:07;9.70;99.90
57218;DHT22;43078;52.972;6.482;2023-04-15T11:08:54;9.70;99.90
57218;DHT22;43078;52.972;6.482;2023-04-15T11:11:21;9.70;99.90
57218;DHT22;43078;52.972;6.482;2023-04-15T11:13:48;9.70;99.90
57218;DHT22;43078;52.972;6.482;2023-04-15T11:16:14;9.80;99.90
57218;DHT22;43078;52.972;6.482;2023-04-15T11:18:40;9.80;99.90
57218;DHT22;43078;52.972;6.482;2023-04-15T11:21:07;9.70;99.90
57218;DHT22;43078;52.972;6.482;2023-04-15T11:23:38;9.80;99.90
57218;DHT22;43078;52.972;6.482;2023-04-15T11:26:08;9.80;99.90
57218;DHT22;43078;52.972;6.482;2023-04-15T11:28:37;9.70;99.90
57218;DHT22;43078;52.972;6.482;2023-04-15T11:31:12;9.80;99.90
57218;DHT22;43078;52.972;6.482;2023-04-15T11:33:45;9.80;99.90
57218;DHT22;43078;52.972;6.482;2023-04-15T11:36:11;9.80;99.90
57218;DHT22;43078;52.972;6.482;2023-04-15T11:38:37;9.80;99.90
57218;DHT22;43078;52.972;6.482;2023-04-15T11:41:06;9.80;99.90
57218;DHT22;43078;52.972;6.482;2023-04-15T11:43:32;9.80;99.90
57218;DHT22;43078;52.972;6.482;2023-04-15T11:46:01;9.80;99.90
57218;DHT22;43078;52.972;6.482;2023-04-15T11:48:32;9.80;99.90
57218;DHT22;43078;52.972;6.482;2023-04-15T11:51:00;9.80;99.90
57218;DHT22;43078;52.972;6.482;2023-04-15T11:53:55;9.90;99.90
57218;DHT22;43078;52.972;6.482;2023-04-15T11:56:25;9.80;99.90
57218;DHT22;43078;52.972;6.482;2023-04-15T11:58:53;9.90;99.90
57218;DHT22;43078;52.972;6.482;2023-04-15T12:01:32;9.90;99.90
57218;DHT22;43078;52.972;6.482;2023-04-15T12:03:58;9.90;99.90
57218;DHT22;43078;52.972;6.482;2023-04-15T12:06:31;9.90;99.90
57218;DHT22;43078;52.972;6.482;2023-04-15T12:09:09;9.90;99.90
57218;DHT22;43078;52.972;6.482;2023-04-15T12:11:36;10.00;99.90
57218;DHT22;43078;52.972;6.482;2023-04-15T12:16:38;10.00;99.90
57218;DHT22;43078;52.972;6.482;2023-04-15T12:19:06;10.10;99.90
57218;DHT22;43078;52.972;6.482;2023-04-15T12:21:35;10.10;99.90
57218;DHT22;43078;52.972;6.482;2023-04-15T12:24:03;10.10;99.90
57218;DHT22;43078;52.972;6.482;2023-04-15T12:26:35;10.10;99.90
57218;DHT22;43078;52.972;6.482;2023-04-15T12:29:05;10.10;99.90
57218;DHT22;43078;52.972;6.482;2023-04-15T12:31:35;10.10;99.90
57218;DHT22;43078;52.972;6.482;2023-04-15T12:34:02;10.10;99.90
57218;DHT22;43078;52.972;6.482;2023-04-15T12:36:29;10.00;99.90
57218;DHT22;43078;52.972;6.482;2023-04-15T12:38:57;10.00;99.90
57218;DHT22;43078;52.972;6.482;2023-04-15T12:41:23;10.10;99.90
57218;DHT22;43078;52.972;6.482;2023-04-15T12:43:49;10.10;99.90
57218;DHT22;43078;52.972;6.482;2023-04-15T12:46:15;10.10;99.90
57218;DHT22;43078;52.972;6.482;2023-04-15T12:48:41;10.10;99.90
57218;DHT22;43078;52.972;6.482;2023-04-15T12:51:06;10.10;99.90
57218;DHT22;43078;52.972;6.482;2023-04-15T12:53:32;10.10;99.90
57218;DHT22;43078;52.972;6.482;2023-04-15T12:55:59;10.00;99.90
57218;DHT22;43078;52.972;6.482;2023-04-15T12:58:25;10.00;99.90
57218;DHT22;43078;52.972;6.482;2023-04-15T13:00:51;10.00;99.90
57218;DHT22;43078;52.972;6.482;2023-04-15T13:03:17;10.00;99.90
57218;DHT22;43078;52.972;6.482;2023-04-15T13:05:43;9.90;99.90
57218;DHT22;43078;52.972;6.482;2023-04-15T13:08:09;10.00;99.90
57218;DHT22;43078;52.972;6.482;2023-04-15T13:10:35;10.00;99.90
57218;DHT22;43078;52.972;6.482;2023-04-15T13:13:01;10.00;99.90
57218;DHT22;43078;52.972;6.482;2023-04-15T13:15:27;10.00;99.90
57218;DHT22;43078;52.972;6.482;2023-04-15T13:17:53;9.90;99.90
57218;DHT22;43078;52.972;6.482;2023-04-15T13:20:19;9.90;99.90
57218;DHT22;43078;52.972;6.482;2023-04-15T13:22:45;9.90;99.90
57218;DHT22;43078;52.972;6.482;2023-04-15T13:25:10;9.90;99.90
57218;DHT22;43078;52.972;6.482;2023-04-15T13:27:37;9.90;99.90
57218;DHT22;43078;52.972;6.482;2023-04-15T13:30:06;9.90;99.90
57218;DHT22;43078;52.972;6.482;2023-04-15T13:32:32;9.90;99.90
57218;DHT22;43078;52.972;6.482;2023-04-15T13:34:57;9.90;99.90
57218;DHT22;43078;52.972;6.482;2023-04-15T13:37:27;9.90;99.90
57218;DHT22;43078;52.972;6.482;2023-04-15T13:39:53;9.90;99.90
57218;DHT22;43078;52.972;6.482;2023-04-15T13:42:18;9.90;99.90
57218;DHT22;43078;52.972;6.482;2023-04-15T13:44:44;9.90;99.90
57218;DHT22;43078;52.972;6.482;2023-04-15T13:47:10;9.90;99.90
57218;DHT22;43078;52.972;6.482;2023-04-15T13:49:36;9.90;99.90
57218;DHT22;43078;52.972;6.482;2023-04-15T13:52:01;9.90;99.90
57218;DHT22;43078;52.972;6.482;2023-04-15T13:54:27;9.90;99.90
57218;DHT22;43078;52.972;6.482;2023-04-15T13:56:54;9.90;99.90
57218;DHT22;43078;52.972;6.482;2023-04-15T13:59:20;9.90;99.90
57218;DHT22;43078;52.972;6.482;2023-04-15T14:01:46;9.90;99.90
57218;DHT22;43078;52.972;6.482;2023-04-15T14:04:12;9.80;99.90
57218;DHT22;43078;52.972;6.482;2023-04-15T14:06:38;9.80;99.90
57218;DHT22;43078;52.972;6.482;2023-04-15T14:09:04;9.70;99.90
57218;DHT22;43078;52.972;6.482;2023-04-15T14:11:29;9.70;99.90
57218;DHT22;43078;52.972;6.482;2023-04-15T14:13:55;9.70;99.90
57218;DHT22;43078;52.972;6.482;2023-04-15T14:16:20;9.70;99.90
57218;DHT22;43078;52.972;6.482;2023-04-15T14:18:46;9.70;99.90
57218;DHT22;43078;52.972;6.482;2023-04-15T14:21:12;9.70;99.90
57218;DHT22;43078;52.972;6.482;2023-04-15T14:23:37;9.80;99.90
57218;DHT22;43078;52.972;6.482;2023-04-15T14:26:03;9.70;99.90
57218;DHT22;43078;52.972;6.482;2023-04-15T14:28:30;9.80;99.90
57218;DHT22;43078;52.972;6.482;2023-04-15T14:30:56;9.80;99.90
57218;DHT22;43078;52.972;6.482;2023-04-15T14:33:22;9.80;99.90
57218;DHT22;43078;52.972;6.482;2023-04-15T14:35:53;9.80;99.90
57218;DHT22;43078;52.972;6.482;2023-04-15T14:38:18;9.80;99.90
57218;DHT22;43078;52.972;6.482;2023-04-15T14:40:46;9.80;99.90
57218;DHT22;43078;52.972;6.482;2023-04-15T14:43:12;9.80;99.90
57218;DHT22;43078;52.972;6.482;2023-04-15T14:45:38;9.80;99.90
57218;DHT22;43078;52.972;6.482;2023-04-15T14:48:04;9.80;99.90
57218;DHT22;43078;52.972;6.482;2023-04-15T14:50:30;9.80;99.90
57218;DHT22;43078;52.972;6.482;2023-04-15T14:52:57;9.70;99.90
57218;DHT22;43078;52.972;6.482;2023-04-15T14:55:22;9.70;99.90
57218;DHT22;43078;52.972;6.482;2023-04-15T14:57:48;9.60;99.90
57218;DHT22;43078;52.972;6.482;2023-04-15T15:00:14;9.60;99.90
57218;DHT22;43078;52.972;6.482;2023-04-15T15:02:39;9.60;99.90
57218;DHT22;43078;52.972;6.482;2023-04-15T15:05:08;9.60;99.90
57218;DHT22;43078;52.972;6.482;2023-04-15T15:07:33;9.60;99.90
57218;DHT22;43078;52.972;6.482;2023-04-15T15:10:01;9.60;99.90
57218;DHT22;43078;52.972;6.482;2023-04-15T15:12:26;9.70;99.90
57218;DHT22;43078;52.972;6.482;2023-04-15T15:14:54;9.60;99.90
57218;DHT22;43078;52.972;6.482;2023-04-15T15:17:20;9.60;99.90
57218;DHT22;43078;52.972;6.482;2023-04-15T15:19:48;9.70;99.90
57218;DHT22;43078;52.972;6.482;2023-04-15T15:22:13;9.60;99.90
57218;DHT22;43078;52.972;6.482;2023-04-15T15:24:39;9.60;99.90
57218;DHT22;43078;52.972;6.482;2023-04-15T15:27:05;9.70;99.90
57218;DHT22;43078;52.972;6.482;2023-04-15T15:29:30;9.60;99.90
57218;DHT22;43078;52.972;6.482;2023-04-15T15:31:56;9.60;99.90
57218;DHT22;43078;52.972;6.482;2023-04-15T15:34:22;9.60;99.90
57218;DHT22;43078;52.972;6.482;2023-04-15T15:36:47;9.60;99.90
57218;DHT22;43078;52.972;6.482;2023-04-15T15:39:13;9.60;99.90
57218;DHT22;43078;52.972;6.482;2023-04-15T15:41:38;9.60;99.90
57218;DHT22;43078;52.972;6.482;2023-04-15T15:44:04;9.60;99.90
57218;DHT22;43078;52.972;6.482;2023-04-15T15:46:30;9.50;99.90
57218;DHT22;43078;52.972;6.482;2023-04-15T15:48:56;9.50;99.90